createdAt,value
2024-02-24T00:00:52.302Z,14.45
2024-02-24T00:03:21.404Z,13.18
2024-02-24T00:05:49.739Z,11.88
2024-02-24T00:08:16.590Z,12.77
2024-02-24T00:10:43.428Z,12.32
2024-02-24T00:13:10.318Z,14.05
2024-02-24T00:15:37.187Z,13.00
2024-02-24T00:18:05.378Z,13.00
2024-02-24T00:20:32.380Z,13.13
2024-02-24T00:22:59.381Z,13.18
2024-02-24T00:25:26.175Z,15.35
2024-02-24T00:27:52.963Z,13.93
2024-02-24T00:30:19.669Z,15.88
2024-02-24T00:32:46.505Z,14.48
2024-02-24T00:35:13.476Z,14.55
2024-02-24T00:37:40.474Z,14.07
2024-02-24T00:40:08.363Z,13.60
2024-02-24T00:42:35.108Z,13.60
2024-02-24T00:45:03.311Z,13.50
2024-02-24T00:47:30.228Z,12.57
2024-02-24T00:49:56.990Z,12.55
2024-02-24T00:52:23.891Z,12.52
2024-02-24T00:54:50.636Z,12.20
2024-02-24T00:57:17.370Z,12.05
2024-02-24T00:59:44.161Z,12.98
2024-02-24T01:02:11.065Z,12.60
2024-02-24T01:04:38.053Z,12.40
2024-02-24T01:07:05.030Z,12.18
2024-02-24T01:09:31.838Z,12.50
2024-02-24T01:11:58.913Z,11.98
2024-02-24T01:14:25.705Z,12.35
2024-02-24T01:16:52.486Z,12.25
2024-02-24T01:19:19.347Z,12.75
2024-02-24T01:21:46.354Z,13.07
2024-02-24T01:24:15.215Z,12.80
2024-02-24T01:26:42.167Z,13.50
2024-02-24T01:29:09.044Z,12.88
2024-02-24T01:31:35.890Z,12.25
2024-02-24T01:34:02.827Z,12.77
2024-02-24T01:36:29.902Z,12.80
2024-02-24T01:38:56.757Z,12.50
2024-02-24T01:41:23.589Z,12.23
2024-02-24T01:43:50.404Z,12.63
2024-02-24T01:46:17.201Z,13.02
2024-02-24T01:48:44.276Z,12.15
2024-02-24T01:51:11.824Z,12.65
2024-02-24T01:53:39.083Z,12.65
2024-02-24T01:56:09.087Z,12.98
2024-02-24T01:58:40.070Z,12.32
2024-02-24T02:01:09.562Z,13.90
2024-02-24T02:03:37.315Z,13.00
2024-02-24T02:06:04.829Z,12.95
2024-02-24T02:08:31.720Z,12.85
2024-02-24T02:10:58.626Z,12.82
2024-02-24T02:13:25.502Z,12.18
2024-02-24T02:15:58.337Z,11.85
2024-02-24T02:18:25.457Z,11.95
2024-02-24T02:20:53.263Z,11.63
2024-02-24T02:23:20.890Z,12.52
2024-02-24T02:25:47.944Z,11.52
2024-02-24T02:28:14.747Z,11.65
2024-02-24T02:30:41.612Z,13.00
2024-02-24T02:33:10.248Z,11.48
2024-02-24T02:35:37.644Z,11.43
2024-02-24T02:38:08.924Z,11.93
2024-02-24T02:40:36.045Z,11.88
2024-02-24T02:43:02.906Z,12.52
2024-02-24T02:45:29.624Z,11.98
2024-02-24T02:47:56.442Z,11.30
2024-02-24T02:50:23.329Z,11.63
2024-02-24T02:52:50.429Z,11.15
2024-02-24T02:55:18.830Z,11.73
2024-02-24T02:57:45.677Z,12.60
2024-02-24T03:00:13.044Z,11.63
2024-02-24T03:02:39.890Z,11.98
2024-02-24T03:05:07.275Z,12.82
2024-02-24T03:07:34.132Z,12.38
2024-02-24T03:10:00.901Z,11.80
2024-02-24T03:12:28.155Z,11.95
2024-02-24T03:14:55.016Z,11.93
2024-02-24T03:17:21.953Z,13.30
2024-02-24T03:19:48.724Z,13.15
2024-02-24T03:22:15.477Z,14.63
2024-02-24T03:24:43.222Z,11.60
2024-02-24T03:27:13.985Z,12.27
2024-02-24T03:29:41.207Z,10.77
2024-02-24T03:32:08.238Z,11.45
2024-02-24T03:34:35.166Z,10.52
2024-02-24T03:37:02.665Z,10.68
2024-02-24T03:39:29.414Z,11.13
2024-02-24T03:41:56.229Z,11.52
2024-02-24T03:44:22.945Z,13.65
2024-02-24T03:46:49.751Z,11.73
2024-02-24T03:49:16.699Z,10.75
2024-02-24T03:51:43.428Z,11.15
2024-02-24T03:54:11.691Z,10.82
2024-02-24T03:56:38.614Z,11.10
2024-02-24T03:59:05.717Z,11.38
2024-02-24T04:01:32.743Z,11.57
2024-02-24T04:03:59.664Z,11.85
2024-02-24T04:06:26.557Z,11.77
2024-02-24T04:08:53.437Z,11.40
2024-02-24T04:11:20.284Z,11.05
2024-02-24T04:13:47.036Z,12.02
2024-02-24T04:16:13.833Z,12.15
2024-02-24T04:18:40.678Z,12.70
2024-02-24T04:21:07.538Z,12.52
2024-02-24T04:23:34.346Z,11.55
2024-02-24T04:26:02.365Z,11.40
2024-02-24T04:28:29.138Z,11.77
2024-02-24T04:30:55.933Z,11.98
2024-02-24T04:33:22.797Z,11.48
2024-02-24T04:35:49.763Z,11.70
2024-02-24T04:38:16.584Z,11.50
2024-02-24T04:40:43.464Z,11.20
2024-02-24T04:43:10.434Z,11.68
2024-02-24T04:45:37.827Z,11.40
2024-02-24T04:48:04.915Z,11.07
2024-02-24T04:50:31.920Z,11.18
2024-02-24T04:52:58.779Z,10.75
2024-02-24T04:55:25.651Z,11.55
2024-02-24T04:57:52.550Z,10.27
2024-02-24T05:00:19.542Z,11.00
2024-02-24T05:02:46.628Z,10.57
2024-02-24T05:05:14.107Z,10.75
2024-02-24T05:07:41.086Z,11.27
2024-02-24T05:10:08.599Z,11.57
2024-02-24T05:12:36.915Z,11.55
2024-02-24T05:15:03.928Z,11.30
2024-02-24T05:17:30.749Z,11.68
2024-02-24T05:19:57.513Z,11.52
2024-02-24T05:22:24.606Z,11.20
2024-02-24T05:24:51.343Z,11.20
2024-02-24T05:27:20.879Z,11.57
2024-02-24T05:29:48.337Z,11.27
2024-02-24T05:32:17.844Z,11.88
2024-02-24T05:34:45.067Z,12.02
2024-02-24T05:37:12.064Z,11.13
2024-02-24T05:39:39.297Z,11.77
2024-02-24T05:42:07.251Z,11.98
2024-02-24T05:44:34.406Z,12.55
2024-02-24T05:47:01.257Z,11.10
2024-02-24T05:49:28.061Z,12.02
2024-02-24T05:51:54.866Z,13.68
2024-02-24T05:54:22.421Z,12.13
2024-02-24T05:56:49.269Z,11.85
2024-02-24T05:59:16.350Z,12.00
2024-02-24T06:01:43.799Z,12.70
2024-02-24T06:04:10.604Z,12.20
2024-02-24T06:06:37.362Z,12.00
2024-02-24T06:09:04.135Z,11.57
2024-02-24T06:11:31.001Z,12.43
2024-02-24T06:13:57.801Z,12.27
2024-02-24T06:16:24.537Z,12.13
2024-02-24T06:18:51.376Z,13.18
2024-02-24T06:21:18.177Z,13.65
2024-02-24T06:23:44.963Z,13.70
2024-02-24T06:26:11.767Z,13.82
2024-02-24T06:28:39.815Z,13.60
2024-02-24T06:31:06.746Z,14.38
2024-02-24T06:33:33.635Z,15.40
2024-02-24T06:36:00.614Z,16.10
2024-02-24T06:38:28.345Z,16.38
2024-02-24T06:40:55.253Z,16.08
2024-02-24T06:43:22.287Z,16.00
2024-02-24T06:45:49.040Z,15.90
2024-02-24T06:48:16.825Z,15.75
2024-02-24T06:50:43.699Z,15.68
2024-02-24T06:53:10.540Z,15.05
2024-02-24T06:55:37.297Z,15.23
2024-02-24T06:58:04.096Z,14.73
2024-02-24T07:00:30.939Z,14.85
2024-02-24T07:02:57.855Z,15.57
2024-02-24T07:05:26.699Z,15.85
2024-02-24T07:07:53.651Z,15.88
2024-02-24T07:10:20.403Z,15.63
2024-02-24T07:12:47.962Z,15.32
2024-02-24T07:15:14.698Z,16.23
2024-02-24T07:17:42.421Z,16.20
2024-02-24T07:20:09.774Z,16.92
2024-02-24T07:22:36.587Z,17.42
2024-02-24T07:25:03.470Z,16.95
2024-02-24T07:27:30.221Z,16.55
2024-02-24T07:29:57.176Z,17.33
2024-02-24T07:32:24.280Z,16.77
2024-02-24T07:34:51.359Z,16.42
2024-02-24T07:37:18.437Z,16.83
2024-02-24T07:39:45.258Z,15.82
2024-02-24T07:42:12.193Z,16.08
2024-02-24T07:44:40.093Z,17.58
2024-02-24T07:47:09.071Z,21.17
2024-02-24T07:49:36.735Z,18.48
2024-02-24T07:52:05.145Z,17.20
2024-02-24T07:54:31.897Z,18.02
2024-02-24T07:56:58.692Z,15.82
2024-02-24T07:59:25.570Z,16.10
2024-02-24T08:01:52.363Z,14.70
2024-02-24T08:04:20.089Z,15.95
2024-02-24T08:06:46.913Z,16.73
2024-02-24T08:09:13.671Z,16.95
2024-02-24T08:11:43.451Z,15.05
2024-02-24T08:14:10.781Z,15.95
2024-02-24T08:16:37.631Z,15.95
2024-02-24T08:19:06.131Z,15.65
2024-02-24T08:21:37.753Z,14.88
2024-02-24T08:24:10.678Z,14.93
2024-02-24T08:26:41.304Z,31.17
2024-02-24T08:29:11.204Z,15.50
2024-02-24T08:31:39.909Z,17.00
2024-02-24T08:34:06.996Z,15.50
2024-02-24T08:36:34.162Z,16.42
2024-02-24T08:39:01.486Z,25.50
2024-02-24T08:41:32.804Z,20.13
2024-02-24T08:44:02.501Z,19.25
2024-02-24T08:46:30.314Z,19.60
2024-02-24T08:48:58.044Z,19.10
2024-02-24T08:51:26.917Z,19.90
2024-02-24T08:53:54.014Z,22.20
2024-02-24T08:56:21.864Z,23.52
2024-02-24T08:58:49.444Z,24.50
2024-02-24T09:01:17.007Z,23.25
2024-02-24T09:03:44.124Z,22.17
2024-02-24T09:06:11.330Z,21.70
2024-02-24T09:08:38.909Z,22.70
2024-02-24T09:11:05.986Z,24.17
2024-02-24T09:13:32.961Z,24.27
2024-02-24T09:16:00.076Z,24.73
2024-02-24T09:18:29.137Z,24.40
2024-02-24T09:20:56.127Z,19.42
2024-02-24T09:23:23.085Z,19.05
2024-02-24T09:25:49.937Z,20.20
2024-02-24T09:28:16.646Z,21.58
2024-02-24T09:30:43.414Z,20.40
2024-02-24T09:33:10.320Z,20.67
2024-02-24T09:35:37.290Z,21.48
2024-02-24T09:38:04.166Z,21.10
2024-02-24T09:40:30.969Z,21.52
2024-02-24T09:43:09.192Z,21.52
2024-02-24T09:45:42.585Z,21.20
2024-02-24T09:48:11.093Z,21.02
2024-02-24T09:50:38.083Z,21.00
2024-02-24T09:53:04.944Z,21.55
2024-02-24T09:55:31.696Z,21.55
2024-02-24T09:57:58.737Z,20.90
2024-02-24T10:00:25.556Z,20.65
2024-02-24T10:02:53.397Z,20.60
2024-02-24T10:05:20.527Z,21.55
2024-02-24T10:07:47.784Z,22.27
2024-02-24T10:10:17.371Z,25.55
2024-02-24T10:13:00.575Z,27.42
2024-02-24T10:15:27.982Z,23.33
2024-02-24T10:17:56.329Z,27.15
2024-02-24T10:20:23.363Z,22.35
2024-02-24T10:22:50.463Z,23.95
2024-02-24T10:25:17.768Z,22.20
2024-02-24T10:27:44.976Z,21.20
2024-02-24T10:30:12.419Z,22.20
2024-02-24T10:32:40.762Z,21.45
2024-02-24T10:35:09.615Z,22.52
2024-02-24T10:37:49.546Z,20.20
2024-02-24T10:40:23.455Z,20.88
2024-02-24T10:42:51.131Z,20.35
2024-02-24T10:45:18.891Z,22.27
2024-02-24T10:47:46.237Z,24.23
2024-02-24T10:50:14.243Z,20.10
2024-02-24T10:52:41.648Z,21.80
2024-02-24T10:55:09.226Z,22.23
2024-02-24T10:57:38.569Z,23.48
2024-02-24T11:00:29.825Z,23.63
2024-02-24T11:03:02.483Z,19.70
2024-02-24T11:05:29.632Z,21.83
2024-02-24T11:07:56.666Z,23.58
2024-02-24T11:10:33.100Z,22.42
2024-02-24T11:13:02.543Z,22.63
2024-02-24T11:15:29.363Z,22.27
2024-02-24T11:18:00.110Z,22.15
2024-02-24T11:20:39.947Z,20.77
2024-02-24T11:23:27.533Z,20.45
2024-02-24T11:26:21.939Z,22.17
2024-02-24T11:29:00.340Z,21.90
2024-02-24T11:31:36.327Z,23.88
2024-02-24T11:34:09.121Z,21.30
2024-02-24T11:36:39.289Z,23.13
2024-02-24T11:39:13.020Z,22.48
2024-02-24T11:41:41.693Z,22.00
2024-02-24T11:44:09.185Z,20.50
2024-02-24T11:46:36.921Z,20.17
2024-02-24T11:49:04.555Z,23.90
2024-02-24T11:51:31.559Z,21.17
2024-02-24T11:53:58.623Z,19.58
2024-02-24T11:56:26.722Z,20.80
2024-02-24T11:58:56.171Z,20.70
2024-02-24T12:01:23.894Z,23.98
2024-02-24T12:03:54.835Z,20.92
2024-02-24T12:06:22.661Z,22.00
2024-02-24T12:08:49.705Z,24.85
2024-02-24T12:11:16.638Z,21.88
2024-02-24T12:13:44.919Z,21.35
2024-02-24T12:16:11.690Z,21.35
2024-02-24T12:18:42.580Z,21.17
2024-02-24T12:21:12.017Z,20.30
2024-02-24T12:23:40.383Z,20.02
2024-02-24T12:26:14.794Z,22.30
2024-02-24T12:28:43.063Z,19.40
2024-02-24T12:31:11.628Z,22.98
2024-02-24T12:33:40.168Z,24.05
2024-02-24T12:36:08.418Z,25.00
2024-02-24T12:38:39.218Z,23.25
2024-02-24T12:41:13.656Z,22.02
2024-02-24T12:43:41.666Z,26.42
2024-02-24T12:46:09.624Z,21.58
2024-02-24T12:48:40.863Z,21.33
2024-02-24T12:51:09.562Z,21.10
2024-02-24T12:53:36.558Z,21.50
2024-02-24T12:56:03.970Z,21.48
2024-02-24T12:58:30.775Z,22.00
2024-02-24T13:00:58.134Z,21.95
2024-02-24T13:03:25.365Z,20.98
2024-02-24T13:05:52.252Z,18.60
2024-02-24T13:08:19.123Z,18.05
2024-02-24T13:10:46.593Z,17.17
2024-02-24T13:13:13.605Z,16.20
2024-02-24T13:15:40.389Z,13.30
2024-02-24T13:18:07.819Z,12.50
2024-02-24T13:20:35.178Z,11.05
2024-02-24T13:23:02.563Z,8.80
2024-02-24T13:25:29.498Z,11.35
2024-02-24T13:27:56.343Z,11.13
2024-02-24T13:30:24.190Z,11.43
2024-02-24T13:32:51.832Z,13.13
2024-02-24T13:35:19.007Z,15.70
2024-02-24T13:37:45.845Z,18.05
2024-02-24T13:40:12.717Z,19.33
2024-02-24T13:42:39.718Z,18.83
2024-02-24T13:45:08.136Z,21.38
2024-02-24T13:47:36.196Z,21.52
2024-02-24T13:50:03.932Z,23.00
2024-02-24T13:52:30.799Z,21.95
2024-02-24T13:54:57.902Z,21.42
2024-02-24T13:57:24.721Z,24.35
2024-02-24T13:59:51.574Z,28.30
2024-02-24T14:02:18.863Z,32.50
2024-02-24T14:04:45.907Z,30.85
2024-02-24T14:07:14.754Z,30.63
2024-02-24T14:09:42.461Z,35.25
2024-02-24T14:12:09.922Z,28.30
2024-02-24T14:14:36.685Z,27.02
2024-02-24T14:17:04.325Z,27.55
2024-02-24T14:19:32.212Z,29.38
2024-02-24T14:21:59.036Z,25.95
2024-02-24T14:24:25.837Z,27.80
2024-02-24T14:26:54.023Z,28.83
2024-02-24T14:29:20.874Z,26.42
2024-02-24T14:31:47.827Z,22.58
2024-02-24T14:34:14.633Z,24.27
2024-02-24T14:36:41.408Z,24.88
2024-02-24T14:39:08.904Z,25.35
2024-02-24T14:41:35.771Z,24.40
2024-02-24T14:44:03.442Z,24.27
2024-02-24T14:46:30.442Z,22.98
2024-02-24T14:48:57.336Z,22.35
2024-02-24T14:51:24.368Z,23.08
2024-02-24T14:53:52.419Z,21.45
2024-02-24T14:56:19.863Z,23.35
2024-02-24T14:58:46.654Z,23.50
2024-02-24T15:01:15.554Z,24.60
2024-02-24T15:03:45.327Z,25.33
2024-02-24T15:06:14.581Z,24.60
2024-02-24T15:08:41.429Z,23.38
2024-02-24T15:11:08.253Z,34.70
2024-02-24T15:13:37.540Z,27.02
2024-02-24T15:16:05.075Z,26.02
2024-02-24T15:18:32.091Z,28.65
2024-02-24T15:20:59.299Z,26.13
2024-02-24T15:23:26.172Z,26.50
2024-02-24T15:25:53.061Z,28.55
2024-02-24T15:28:19.841Z,31.55
2024-02-24T15:30:46.768Z,27.40
2024-02-24T15:33:14.192Z,28.63
2024-02-24T15:35:41.144Z,28.73
2024-02-24T15:38:08.158Z,27.83
2024-02-24T15:40:36.937Z,31.02
2024-02-24T15:43:05.591Z,31.70
2024-02-24T15:45:32.367Z,32.60
2024-02-24T15:47:59.328Z,33.42
2024-02-24T15:50:26.955Z,33.00
2024-02-24T15:52:53.769Z,33.50
2024-02-24T15:55:20.617Z,33.80
2024-02-24T15:57:48.882Z,33.05
2024-02-24T16:00:16.086Z,34.35
2024-02-24T16:02:44.010Z,33.28
2024-02-24T16:05:10.994Z,34.47
2024-02-24T16:07:38.000Z,34.40
2024-02-24T16:10:05.272Z,35.38
2024-02-24T16:12:32.022Z,35.75
2024-02-24T16:14:58.940Z,34.97
2024-02-24T16:17:25.781Z,36.58
2024-02-24T16:19:52.889Z,36.78
2024-02-24T16:22:19.852Z,37.65
2024-02-24T16:24:46.605Z,32.90
2024-02-24T16:27:13.385Z,27.38
2024-02-24T16:29:40.261Z,29.25
2024-02-24T16:32:09.672Z,27.80
2024-02-24T16:34:37.239Z,30.15
2024-02-24T16:37:04.370Z,29.58
2024-02-24T16:39:33.205Z,33.78
2024-02-24T16:42:00.310Z,31.00
2024-02-24T16:44:28.212Z,33.97
2024-02-24T16:46:55.888Z,23.38
2024-02-24T16:49:23.390Z,20.58
2024-02-24T16:51:53.073Z,18.33
2024-02-24T16:54:20.084Z,27.70
2024-02-24T16:56:47.098Z,18.83
2024-02-24T16:59:14.054Z,20.55
2024-02-24T17:01:41.068Z,32.45
2024-02-24T17:04:07.820Z,37.20
2024-02-24T17:06:34.711Z,42.75
2024-02-24T17:09:03.860Z,28.98
2024-02-24T17:11:31.084Z,24.88
2024-02-24T17:13:58.105Z,23.40
2024-02-24T17:16:24.996Z,25.23
2024-02-24T17:18:54.412Z,27.88
2024-02-24T17:21:21.470Z,28.40
2024-02-24T17:23:48.683Z,24.60
2024-02-24T17:26:17.046Z,37.83
2024-02-24T17:28:44.362Z,26.73
2024-02-24T17:31:14.720Z,27.83
2024-02-24T17:33:45.353Z,30.83
2024-02-24T17:36:12.645Z,22.55
2024-02-24T17:38:39.962Z,23.33
2024-02-24T17:41:06.888Z,22.15
2024-02-24T17:43:33.903Z,23.13
2024-02-24T17:46:00.890Z,22.50
2024-02-24T17:48:28.671Z,21.83
2024-02-24T17:50:55.734Z,22.45
2024-02-24T17:53:23.635Z,20.10
2024-02-24T17:55:51.350Z,21.10
2024-02-24T17:58:19.089Z,19.77
2024-02-24T18:00:46.987Z,18.95
2024-02-24T18:03:15.271Z,19.02
2024-02-24T18:05:42.634Z,19.20
2024-02-24T18:08:09.579Z,23.45
2024-02-24T18:10:36.302Z,23.55
2024-02-24T18:13:03.646Z,20.95
2024-02-24T18:15:30.570Z,23.60
2024-02-24T18:17:57.446Z,24.40
2024-02-24T18:20:24.311Z,24.13
2024-02-24T18:22:51.073Z,25.10
2024-02-24T18:25:17.916Z,23.30
2024-02-24T18:27:44.635Z,20.20
2024-02-24T18:30:11.686Z,24.58
2024-02-24T18:32:38.742Z,22.67
2024-02-24T18:35:05.976Z,23.38
2024-02-24T18:37:32.699Z,21.60
2024-02-24T18:40:03.046Z,25.25
2024-02-24T18:42:29.834Z,22.38
2024-02-24T18:44:56.694Z,23.15
2024-02-24T18:47:23.947Z,26.42
2024-02-24T18:49:52.481Z,21.17
2024-02-24T18:52:19.208Z,22.08
2024-02-24T18:54:46.834Z,22.10
2024-02-24T18:57:13.617Z,22.77
2024-02-24T18:59:43.783Z,22.52
2024-02-24T19:02:13.386Z,23.75
2024-02-24T19:04:40.476Z,21.65
2024-02-24T19:07:11.685Z,23.67
2024-02-24T19:09:42.253Z,22.30
2024-02-24T19:12:09.701Z,29.85
2024-02-24T19:14:45.470Z,27.20
2024-02-24T19:17:19.705Z,23.90
2024-02-24T19:19:49.475Z,32.83
2024-02-24T19:22:16.296Z,37.67
2024-02-24T19:24:43.091Z,25.45
2024-02-24T19:27:09.840Z,21.77
2024-02-24T19:29:37.574Z,26.77
2024-02-24T19:32:04.710Z,23.65
2024-02-24T19:34:31.550Z,21.48
2024-02-24T19:36:58.376Z,21.33
2024-02-24T19:39:25.184Z,21.88
2024-02-24T19:41:51.974Z,20.20
2024-02-24T19:44:18.804Z,22.25
2024-02-24T19:46:45.597Z,21.73
2024-02-24T19:49:12.900Z,25.65
2024-02-24T19:51:39.798Z,21.00
2024-02-24T19:54:06.619Z,22.85
2024-02-24T19:56:33.476Z,22.90
2024-02-24T19:59:00.494Z,22.85
2024-02-24T20:01:27.269Z,21.83
2024-02-24T20:03:54.123Z,24.98
2024-02-24T20:06:21.000Z,20.48
2024-02-24T20:08:47.901Z,19.67
2024-02-24T20:11:14.924Z,18.45
2024-02-24T20:13:41.846Z,19.95
2024-02-24T20:16:08.887Z,19.63
2024-02-24T20:18:35.781Z,23.67
2024-02-24T20:21:03.955Z,18.10
2024-02-24T20:23:30.740Z,22.73
2024-02-24T20:25:57.491Z,19.73
2024-02-24T20:28:24.247Z,23.65
2024-02-24T20:30:51.060Z,27.15
2024-02-24T20:33:18.327Z,24.70
2024-02-24T20:35:45.278Z,26.77
2024-02-24T20:38:12.387Z,22.27
2024-02-24T20:40:39.962Z,27.65
2024-02-24T20:43:06.801Z,19.92
2024-02-24T20:45:33.526Z,19.88
2024-02-24T20:48:00.403Z,20.95
2024-02-24T20:50:29.228Z,19.02
2024-02-24T20:52:56.027Z,27.60
2024-02-24T20:55:22.907Z,23.10
2024-02-24T20:57:49.678Z,20.95
2024-02-24T21:00:16.899Z,26.40
2024-02-24T21:02:43.736Z,35.47
2024-02-24T21:05:10.630Z,31.80
2024-02-24T21:07:37.350Z,31.83
2024-02-24T21:10:04.420Z,26.08
2024-02-24T21:12:31.090Z,20.23
2024-02-24T21:14:57.885Z,18.58
2024-02-24T21:17:24.750Z,18.15
2024-02-24T21:19:52.811Z,20.58
2024-02-24T21:22:19.646Z,20.83
2024-02-24T21:24:46.400Z,24.25
2024-02-24T21:27:13.294Z,23.55
2024-02-24T21:29:42.432Z,22.13
2024-02-24T21:32:09.177Z,21.08
2024-02-24T21:34:38.046Z,21.35
2024-02-24T21:37:05.060Z,21.42
2024-02-24T21:39:31.874Z,22.73
2024-02-24T21:41:58.999Z,22.30
2024-02-24T21:44:25.916Z,28.98
2024-02-24T21:46:52.731Z,35.63
2024-02-24T21:49:19.761Z,37.53
2024-02-24T21:51:46.553Z,27.20
2024-02-24T21:54:15.571Z,25.17
2024-02-24T21:56:47.452Z,24.55
2024-02-24T21:59:14.212Z,20.38
2024-02-24T22:01:40.914Z,18.80
2024-02-24T22:04:07.835Z,19.95
2024-02-24T22:06:35.428Z,19.27
2024-02-24T22:09:04.141Z,20.55
2024-02-24T22:11:34.827Z,18.00
2024-02-24T22:14:03.561Z,16.13
2024-02-24T22:16:30.771Z,14.95
2024-02-24T22:18:57.838Z,14.73
2024-02-24T22:21:26.617Z,13.65
2024-02-24T22:23:54.930Z,15.45
2024-02-24T22:26:22.329Z,15.20
2024-02-24T22:28:49.074Z,16.42
2024-02-24T22:31:15.901Z,15.05
2024-02-24T22:33:42.824Z,29.60
2024-02-24T22:36:10.612Z,15.32
2024-02-24T22:38:37.401Z,13.52
2024-02-24T22:41:08.014Z,13.52
2024-02-24T22:43:35.532Z,14.32
2024-02-24T22:46:06.496Z,16.85
2024-02-24T22:48:33.413Z,11.88
2024-02-24T22:51:00.383Z,15.10
2024-02-24T22:53:28.117Z,12.73
2024-02-24T22:55:54.879Z,12.10
2024-02-24T22:58:21.583Z,17.65
2024-02-24T23:00:48.637Z,12.68
2024-02-24T23:03:15.680Z,11.75
2024-02-24T23:05:42.636Z,15.32
2024-02-24T23:08:09.834Z,13.73
2024-02-24T23:10:36.599Z,15.05
2024-02-24T23:13:04.092Z,13.15
2024-02-24T23:15:31.654Z,11.93
2024-02-24T23:17:58.896Z,12.40
2024-02-24T23:20:27.854Z,11.88
2024-02-24T23:22:55.392Z,12.32
2024-02-24T23:25:22.398Z,12.98
2024-02-24T23:27:49.164Z,12.60
2024-02-24T23:30:16.209Z,12.98
2024-02-24T23:32:45.917Z,12.10
2024-02-24T23:35:13.602Z,12.63
2024-02-24T23:37:40.380Z,12.20
2024-02-24T23:40:10.749Z,13.30
2024-02-24T23:42:38.275Z,13.43
2024-02-24T23:45:06.020Z,12.98
2024-02-24T23:47:33.121Z,13.32
2024-02-24T23:50:00.138Z,12.50
2024-02-24T23:52:27.682Z,12.38
2024-02-24T23:54:56.137Z,12.27
2024-02-24T23:57:24.213Z,12.20
2024-02-24T23:59:51.138Z,12.52
